Time;durP1;ratioP1;P1;durP2;ratioP2;P2;SDS_P1;SDS_P2;PMS_P1;PMS_P2;Temp;Humidity;BMP_temperature;BMP_pressure;BME280_temperature;BME280_humidity;BME280_pressure;Samples;Min_cycle;Max_cycle;Signal;HPM_P1;HPM_P2
2021/10/10 00:01:49;;;;;;;10.60;9.32;;;6.20;82.40;;;;;;5072849;28;20281;-64
2021/10/10 00:04:16;;;;;;;12.85;9.40;;;6.20;81.50;;;;;;5073876;28;20280;-63
2021/10/10 00:06:44;;;;;;;12.15;8.65;;;6.20;81.80;;;;;;5073628;28;20324;-64
2021/10/10 00:09:11;;;;;;;12.48;9.00;;;6.10;82.10;;;;;;5073774;28;20261;-63
2021/10/10 00:11:38;;;;;;;11.38;8.60;;;6.10;82.30;;;;;;5073699;28;20285;-63
2021/10/10 00:14:05;;;;;;;13.77;10.93;;;6.00;82.60;;;;;;5073496;28;20623;-63
2021/10/10 00:16:33;;;;;;;16.00;10.35;;;6.00;82.90;;;;;;5073577;28;20296;-64
2021/10/10 00:18:59;;;;;;;13.20;9.13;;;6.00;83.10;;;;;;5073569;28;20284;-64
2021/10/10 00:21:27;;;;;;;11.85;9.10;;;6.00;82.70;;;;;;5073677;28;20591;-64
2021/10/10 00:23:55;;;;;;;12.93;8.98;;;6.00;82.80;;;;;;5073287;28;20325;-64
2021/10/10 00:26:22;;;;;;;14.38;9.85;;;5.90;82.90;;;;;;5072843;28;20308;-63
2021/10/10 00:28:49;;;;;;;13.00;9.50;;;5.90;83.40;;;;;;5073455;28;20276;-64
2021/10/10 00:31:16;;;;;;;9.95;8.40;;;5.80;83.10;;;;;;5073283;28;20284;-64
2021/10/10 00:33:43;;;;;;;14.63;8.95;;;5.80;83.10;;;;;;5073127;28;20189;-64
2021/10/10 00:36:10;;;;;;;11.70;8.13;;;5.90;83.00;;;;;;5073211;28;20616;-63
2021/10/10 00:38:37;;;;;;;12.20;8.65;;;5.80;82.80;;;;;;5073037;28;20280;-63
2021/10/10 00:41:07;;;;;;;11.60;8.02;;;5.80;82.60;;;;;;5073386;28;20272;-63
2021/10/10 00:43:34;;;;;;;12.02;7.90;;;5.80;81.50;;;;;;5073133;28;20190;-63
2021/10/10 00:46:01;;;;;;;10.18;7.88;;;5.70;80.60;;;;;;5072219;28;20221;-64
2021/10/10 00:48:30;;;;;;;14.65;7.90;;;5.60;80.70;;;;;;5072360;28;20229;-64
2021/10/10 00:50:57;;;;;;;9.07;7.20;;;5.60;80.70;;;;;;5072556;28;20193;-64
2021/10/10 00:53:25;;;;;;;14.40;7.72;;;5.60;80.60;;;;;;5072377;28;20233;-63
2021/10/10 00:55:55;;;;;;;14.70;8.55;;;5.50;80.50;;;;;;5073076;28;20281;-64
2021/10/10 00:58:24;;;;;;;9.93;7.30;;;5.50;80.70;;;;;;5072812;28;20269;-64
2021/10/10 01:00:52;;;;;;;11.05;8.65;;;5.50;80.90;;;;;;5072901;28;20228;-64
2021/10/10 01:03:20;;;;;;;11.27;8.05;;;5.40;81.30;;;;;;5072584;28;20285;-63
2021/10/10 01:05:47;;;;;;;12.45;9.80;;;5.40;81.60;;;;;;5072523;28;20341;-64
2021/10/10 01:08:15;;;;;;;13.55;8.70;;;5.40;81.70;;;;;;5072723;28;20259;-64
2021/10/10 01:10:44;;;;;;;11.77;8.75;;;5.30;81.50;;;;;;5072972;28;20276;-64
2021/10/10 01:13:17;;;;;;;12.00;8.25;;;5.30;81.30;;;;;;5072631;28;20276;-64
2021/10/10 01:15:45;;;;;;;12.55;8.55;;;5.30;81.20;;;;;;5072726;28;20233;-63
2021/10/10 01:18:21;;;;;;;12.60;9.13;;;5.30;81.60;;;;;;5072449;28;20361;-64
2021/10/10 01:20:50;;;;;;;11.68;8.27;;;5.30;81.70;;;;;;5072387;28;20185;-64
2021/10/10 01:23:17;;;;;;;15.40;11.93;;;5.30;81.70;;;;;;5072497;28;20193;-64
2021/10/10 01:25:45;;;;;;;12.20;9.43;;;5.30;81.50;;;;;;5072210;28;20767;-63
2021/10/10 01:28:12;;;;;;;12.63;8.70;;;5.30;80.80;;;;;;5072707;28;20281;-63
2021/10/10 01:30:39;;;;;;;12.80;7.63;;;5.30;80.80;;;;;;5072363;28;20229;-63
2021/10/10 01:33:08;;;;;;;9.73;7.35;;;5.30;81.10;;;;;;5072515;28;20700;-64
2021/10/10 01:35:36;;;;;;;10.40;8.13;;;5.30;81.10;;;;;;5072670;28;20194;-63
2021/10/10 01:38:05;;;;;;;10.15;7.65;;;5.30;81.50;;;;;;5072408;28;20285;-63
2021/10/10 01:40:34;;;;;;;14.75;8.27;;;5.40;81.70;;;;;;5072602;28;20339;-63
2021/10/10 01:43:03;;;;;;;9.27;7.20;;;5.50;82.30;;;;;;5072595;28;20225;-64
2021/10/10 01:45:30;;;;;;;10.70;8.57;;;5.50;82.20;;;;;;5072356;28;20624;-63
2021/10/10 01:47:57;;;;;;;11.30;7.63;;;5.50;82.20;;;;;;5072315;28;20235;-63
2021/10/10 01:50:24;;;;;;;10.48;8.68;;;5.60;82.50;;;;;;5071747;28;20225;-63
2021/10/10 01:52:56;;;;;;;11.10;8.10;;;5.70;83.10;;;;;;5071674;28;20225;-64
2021/10/10 01:55:24;;;;;;;14.18;8.63;;;5.80;83.50;;;;;;5072299;28;20193;-64
2021/10/10 01:57:51;;;;;;;12.43;8.00;;;5.80;83.20;;;;;;5072482;28;20621;-64
2021/10/10 02:00:23;;;;;;;17.20;9.02;;;5.90;83.50;;;;;;5076137;28;20292;-64
2021/10/10 02:02:50;;;;;;;15.25;8.63;;;5.90;83.50;;;;;;5076382;28;20225;-65
2021/10/10 02:05:17;;;;;;;15.95;9.40;;;6.00;83.70;;;;;;5076167;28;20186;-65
2021/10/10 02:07:44;;;;;;;14.90;10.90;;;6.10;84.80;;;;;;5076057;28;20232;-63
2021/10/10 02:10:11;;;;;;;19.38;11.15;;;6.10;85.40;;;;;;5076368;28;20280;-63
2021/10/10 02:12:40;;;;;;;23.70;12.52;;;6.10;85.90;;;;;;5076285;28;20687;-63
2021/10/10 02:15:08;;;;;;;23.33;10.43;;;6.20;86.50;;;;;;5076272;28;20280;-63
2021/10/10 02:17:35;;;;;;;20.27;10.77;;;6.20;87.00;;;;;;5075226;28;20581;-64
2021/10/10 02:20:03;;;;;;;33.15;12.18;;;6.10;87.70;;;;;;5075836;28;20225;-63
2021/10/10 02:22:34;;;;;;;21.30;12.63;;;6.10;88.60;;;;;;5075640;28;20277;-63
2021/10/10 02:25:01;;;;;;;19.23;10.20;;;6.20;89.20;;;;;;5075953;28;20276;-64
2021/10/10 02:27:28;;;;;;;22.80;11.73;;;6.20;89.00;;;;;;5075901;28;20225;-64
2021/10/10 02:29:57;;;;;;;22.85;11.70;;;6.30;89.20;;;;;;5075129;28;20685;-63
2021/10/10 02:32:25;;;;;;;22.92;14.63;;;6.30;89.00;;;;;;5074246;28;20233;-64
2021/10/10 02:34:52;;;;;;;17.45;10.73;;;6.40;89.00;;;;;;5074941;28;20281;-64
2021/10/10 02:37:19;;;;;;;17.38;10.68;;;6.40;89.20;;;;;;5075607;28;20243;-64
2021/10/10 02:39:46;;;;;;;16.63;12.50;;;6.40;89.10;;;;;;5074351;28;20230;-64
2021/10/10 02:42:13;;;;;;;21.33;11.43;;;6.50;89.20;;;;;;5074505;28;20231;-64
2021/10/10 02:44:45;;;;;;;25.17;12.13;;;6.50;89.20;;;;;;5075412;28;20242;-63
2021/10/10 02:47:14;;;;;;;27.05;11.55;;;6.50;89.40;;;;;;5075510;28;20217;-64
2021/10/10 02:49:41;;;;;;;18.52;12.57;;;6.60;89.30;;;;;;5075529;28;20204;-64
2021/10/10 02:52:08;;;;;;;21.27;10.75;;;6.60;89.30;;;;;;5075166;28;20236;-64
2021/10/10 02:54:35;;;;;;;16.73;12.93;;;6.60;88.30;;;;;;5075407;28;20680;-67
2021/10/10 02:57:03;;;;;;;16.52;10.05;;;6.60;88.40;;;;;;5075331;28;20602;-64
2021/10/10 02:59:32;;;;;;;18.33;10.73;;;6.70;89.80;;;;;;5075361;28;20288;-64
2021/10/10 03:01:58;;;;;;;23.55;12.55;;;6.70;88.90;;;;;;5074709;28;20193;-63
2021/10/10 03:04:27;;;;;;;22.90;12.80;;;6.80;88.70;;;;;;5075195;28;20356;-64
2021/10/10 03:06:54;;;;;;;16.70;10.82;;;6.80;88.80;;;;;;5075172;28;20275;-64
2021/10/10 03:09:21;;;;;;;19.83;11.40;;;6.80;88.40;;;;;;5074243;28;20683;-64
2021/10/10 03:11:48;;;;;;;18.42;10.82;;;6.80;88.40;;;;;;5075040;28;20628;-64
2021/10/10 03:14:15;;;;;;;19.63;11.20;;;6.80;88.30;;;;;;5075005;28;20225;-64
2021/10/10 03:16:42;;;;;;;19.35;10.95;;;6.80;88.10;;;;;;5075021;28;20281;-63
2021/10/10 03:19:09;;;;;;;18.50;12.52;;;6.80;88.10;;;;;;5074909;28;20222;-63
2021/10/10 03:21:38;;;;;;;18.75;10.63;;;6.80;88.00;;;;;;5074971;28;20292;-65
2021/10/10 03:24:05;;;;;;;21.50;13.98;;;;;;;;;;5074787;28;20194;-63
2021/10/10 03:26:33;;;;;;;32.83;15.82;;;6.80;88.50;;;;;;5074666;28;20257;-64
2021/10/10 03:28:59;;;;;;;24.20;15.20;;;6.80;88.90;;;;;;5074557;28;20557;-64
2021/10/10 03:31:27;;;;;;;25.20;17.13;;;6.80;89.40;;;;;;5074778;28;20193;-63
2021/10/10 03:33:54;;;;;;;22.90;15.45;;;6.80;89.70;;;;;;5074447;28;20273;-64
2021/10/10 03:36:21;;;;;;;20.42;14.95;;;6.80;90.00;;;;;;5074675;28;20221;-64
2021/10/10 03:38:49;;;;;;;23.33;14.93;;;6.90;90.30;;;;;;5074315;28;20193;-65
2021/10/10 03:41:16;;;;;;;22.92;14.65;;;6.90;90.50;;;;;;5073666;28;20196;-65
2021/10/10 03:43:43;;;;;;;23.27;14.15;;;6.90;90.90;;;;;;5074110;28;20209;-64
2021/10/10 03:46:10;;;;;;;27.40;14.77;;;7.00;90.50;;;;;;5074310;28;20304;-63
2021/10/10 03:48:37;;;;;;;21.15;14.82;;;7.00;90.40;;;;;;5074312;28;20190;-63
2021/10/10 03:51:07;;;;;;;18.73;12.93;;;7.00;90.40;;;;;;5073549;28;20196;-63
2021/10/10 03:53:46;;;;;;;22.90;13.90;;;7.10;90.50;;;;;;5074246;28;20276;-63
2021/10/10 03:56:15;;;;;;;21.42;14.25;;;7.10;90.20;;;;;;5074061;28;20655;-64
2021/10/10 03:58:42;;;;;;;16.92;13.27;;;7.10;89.70;;;;;;5074181;28;20284;-63
2021/10/10 04:01:09;;;;;;;26.50;16.00;;;7.10;90.10;;;;;;5073458;28;20289;-64
2021/10/10 04:03:37;;;;;;;28.00;16.23;;;7.10;90.30;;;;;;5074437;28;20276;-64
2021/10/10 04:06:09;;;;;;;19.30;13.82;;;7.20;90.40;;;;;;5074034;28;20200;-64
2021/10/10 04:08:41;;;;;;;21.92;14.57;;;7.20;90.50;;;;;;5073893;28;20317;-64
2021/10/10 04:11:08;;;;;;;19.40;13.00;;;7.20;90.60;;;;;;5074023;28;20189;-63
2021/10/10 04:13:37;;;;;;;17.85;12.18;;;7.20;90.50;;;;;;5074160;28;20186;-63
2021/10/10 04:16:04;;;;;;;24.42;15.75;;;7.30;90.40;;;;;;5073759;28;20272;-63
2021/10/10 04:18:33;;;;;;;17.30;11.80;;;;;;;;;;5074091;28;20575;-63
2021/10/10 04:21:00;;;;;;;25.35;14.60;;;;;;;;;;5073911;28;20194;-64
2021/10/10 04:23:27;;;;;;;15.80;11.90;;;;;;;;;;5073898;28;20285;-64
2021/10/10 04:25:55;;;;;;;14.85;11.73;;;;;;;;;;5073900;28;20232;-64
2021/10/10 04:28:22;;;;;;;14.70;10.32;;;;;;;;;;5073938;28;20236;-63
2021/10/10 04:30:53;;;;;;;14.07;10.90;;;;;;;;;;5073112;28;20284;-64
2021/10/10 04:33:20;;;;;;;14.50;10.73;;;;;;;;;;5074021;28;20277;-64
2021/10/10 04:35:49;;;;;;;12.13;9.32;;;;;;;;;;5073942;28;20229;-64
2021/10/10 04:38:16;;;;;;;16.13;10.70;;;;;;;;;;5073555;28;20200;-64
2021/10/10 04:40:43;;;;;;;12.35;9.77;;;;;;;;;;5073650;28;20221;-64
2021/10/10 04:43:11;;;;;;;14.30;9.45;;;;;;;;;;5073555;28;20220;-64
2021/10/10 04:45:38;;;;;;;14.55;11.27;;;;;;;;;;5073320;28;20247;-63
2021/10/10 04:48:07;;;;;;;16.63;11.43;;;;;;;;;;5073451;28;20309;-63
2021/10/10 04:50:35;;;;;;;16.50;10.52;;;;;;;;;;5073491;28;20233;-63
2021/10/10 04:53:02;;;;;;;16.17;12.52;;;;;;;;;;5073495;28;20247;-63
2021/10/10 04:55:29;;;;;;;16.15;11.10;;;;;;;;;;5072351;28;20291;-64
2021/10/10 04:57:56;;;;;;;17.73;11.35;;;;;;;;;;5072687;28;20276;-63
2021/10/10 05:00:24;;;;;;;16.88;11.32;;;;;;;;;;5072941;28;20656;-64
2021/10/10 05:02:53;;;;;;;20.23;12.68;;;;;;;;;;5073281;28;20608;-64
2021/10/10 05:05:21;;;;;;;16.55;12.40;;;;;;;;;;5073367;28;20194;-63
2021/10/10 05:07:49;;;;;;;26.52;14.60;;;;;;;;;;5072462;28;20320;-64
2021/10/10 05:10:21;;;;;;;14.00;10.68;;;;;;;;;;5073038;28;20228;-64
2021/10/10 05:12:48;;;;;;;17.90;11.85;;;;;;;;;;5073103;28;20192;-64
2021/10/10 05:15:16;;;;;;;24.20;13.15;;;;;;;;;;5073142;28;20276;-63
2021/10/10 05:17:43;;;;;;;20.77;12.13;;;;;;;;;;5073347;28;20282;-63
2021/10/10 05:20:10;;;;;;;26.77;14.32;;;;;;;;;;5073138;28;20194;-64
2021/10/10 05:22:39;;;;;;;18.50;11.75;;;;;;;;;;5072922;28;20235;-64
2021/10/10 05:25:07;;;;;;;19.00;12.75;;;;;;;;;;5073115;28;20196;-64
2021/10/10 05:27:34;;;;;;;22.58;13.05;;;;;;;;;;5072810;28;20220;-63
2021/10/10 05:30:01;;;;;;;23.20;12.95;;;;;;;;;;5072585;28;20229;-63
2021/10/10 05:32:28;;;;;;;21.67;11.18;;;;;;;;;;5072263;28;20229;-67
2021/10/10 05:34:56;;;;;;;15.27;10.85;;;;;;;;;;5072816;28;20648;-63
2021/10/10 05:37:23;;;;;;;15.45;10.27;;;;;;;;;;5072819;28;20632;-63
2021/10/10 05:39:52;;;;;;;16.08;12.40;;;;;;;;;;5071749;28;20194;-64
2021/10/10 05:42:19;;;;;;;15.73;12.30;;;;;;;;;;5072099;28;20551;-63
2021/10/10 05:44:46;;;;;;;17.25;11.13;;;;;;;;;;5073081;28;20193;-64
2021/10/10 05:47:14;;;;;;;18.88;11.60;;;;;;;;;;5072799;28;20690;-64
2021/10/10 05:49:41;;;;;;;13.02;10.10;;;;;;;;;;5072646;28;20229;-64
2021/10/10 05:52:09;;;;;;;14.43;10.90;;;;;;;;;;5072709;28;20644;-64
2021/10/10 05:54:38;;;;;;;15.90;10.45;;;;;;;;;;5072863;28;20198;-64
2021/10/10 05:57:09;;;;;;;13.68;10.48;;;;;;;;;;5072894;28;20239;-66
2021/10/10 05:59:37;;;;;;;16.98;12.70;;;;;;;;;;5072807;28;20715;-64
2021/10/10 06:02:05;;;;;;;15.80;10.90;;;;;;;;;;5072387;28;20190;-64
2021/10/10 06:04:34;;;;;;;15.25;10.88;;;;;;;;;;5072673;28;20229;-64
2021/10/10 06:07:01;;;;;;;15.55;11.55;;;;;;;;;;5072733;28;20219;-63
2021/10/10 06:09:28;;;;;;;14.18;11.02;;;;;;;;;;5072079;28;20313;-66
2021/10/10 06:11:56;;;;;;;16.08;10.98;;;;;;;;;;5072292;28;20230;-63
2021/10/10 06:14:26;;;;;;;14.82;11.27;;;;;;;;;;5072604;28;20237;-64
2021/10/10 06:16:54;;;;;;;15.98;10.55;;;;;;;;;;5072291;28;20198;-63
2021/10/10 06:19:21;;;;;;;17.48;13.05;;;;;;;;;;5072642;28;20632;-64
2021/10/10 06:21:48;;;;;;;24.88;14.60;;;;;;;;;;5072412;28;20719;-64
2021/10/10 06:24:16;;;;;;;17.27;12.95;;;;;;;;;;5072587;28;20675;-64
2021/10/10 06:26:46;;;;;;;16.17;12.30;;;;;;;;;;5072346;28;20244;-63
2021/10/10 06:29:18;;;;;;;17.10;12.18;;;;;;;;;;5072258;28;20713;-65
2021/10/10 06:31:47;;;;;;;17.17;13.48;;;;;;;;;;5072255;28;20265;-64
2021/10/10 06:34:14;;;;;;;18.00;12.43;;;;;;;;;;5072358;28;20276;-64
2021/10/10 06:36:42;;;;;;;29.98;13.93;;;;;;;;;;5072712;28;20193;-63
2021/10/10 06:39:09;;;;;;;21.50;14.10;;;;;;;;;;5072566;28;20186;-64
2021/10/10 06:41:36;;;;;;;14.88;11.82;;;;;;;;;;5072046;28;20236;-64
2021/10/10 06:44:03;;;;;;;15.35;12.32;;;;;;;;;;5072497;28;20251;-64
2021/10/10 06:46:31;;;;;;;17.58;11.35;;;;;;;;;;5075221;28;20193;-64
2021/10/10 06:48:59;;;;;;;15.93;11.02;;;;;;;;;;5075557;28;20223;-64
2021/10/10 06:51:32;;;;;;;16.67;11.52;;;;;;;;;;5075877;28;20232;-64
2021/10/10 06:53:59;;;;;;;15.32;12.65;;;7.30;90.20;;;;;;5075840;28;20225;-64
2021/10/10 06:56:26;;;;;;;15.50;11.80;;;8.00;87.00;;;;;;5075912;28;20606;-64
2021/10/10 06:58:53;;;;;;;16.08;12.80;;;8.00;87.10;;;;;;5075446;28;20263;-64
2021/10/10 07:01:20;;;;;;;18.88;13.57;;;8.10;86.90;;;;;;5075092;28;20197;-64
2021/10/10 07:03:47;;;;;;;20.33;13.38;;;8.10;87.40;;;;;;5075473;28;20225;-64
2021/10/10 07:06:16;;;;;;;25.52;13.05;;;8.10;88.10;;;;;;5075536;28;20225;-65
2021/10/10 07:08:42;;;;;;;17.90;13.25;;;8.20;88.10;;;;;;5075279;28;20322;-63
2021/10/10 07:11:09;;;;;;;20.83;12.48;;;8.20;88.00;;;;;;5075469;28;20602;-64
2021/10/10 07:13:36;;;;;;;16.50;12.30;;;8.30;87.60;;;;;;5075152;28;20285;-64
2021/10/10 07:16:04;;;;;;;18.88;13.25;;;8.40;87.80;;;;;;5075238;28;20196;-64
2021/10/10 07:18:41;;;;;;;20.05;13.98;;;8.40;87.50;;;;;;5075206;28;20225;-64
2021/10/10 07:21:19;;;;;;;18.73;12.35;;;8.40;87.30;;;;;;5075496;28;20731;-64
2021/10/10 07:26:33;;;;;;;18.02;13.48;;;8.50;87.00;;;;;;5075373;28;20209;-64
2021/10/10 07:29:00;;;;;;;23.42;13.93;;;8.50;86.50;;;;;;5074700;28;20264;-64
2021/10/10 07:31:27;;;;;;;23.80;14.55;;;8.60;86.10;;;;;;5075008;28;20280;-63
2021/10/10 07:33:54;;;;;;;19.33;13.82;;;8.60;86.10;;;;;;5075118;28;20276;-64
2021/10/10 07:36:21;;;;;;;22.30;15.20;;;8.60;86.30;;;;;;5074757;28;20281;-64
2021/10/10 07:38:50;;;;;;;20.35;14.13;;;8.70;86.70;;;;;;5074748;28;20610;-64
2021/10/10 07:41:17;;;;;;;23.00;14.77;;;8.80;86.60;;;;;;5074883;28;20277;-64
2021/10/10 07:43:46;;;;;;;20.83;13.25;;;8.80;86.20;;;;;;5074614;28;20194;-65
2021/10/10 07:46:19;;;;;;;21.02;15.88;;;8.80;86.70;;;;;;5074686;28;20228;-65
2021/10/10 07:48:47;;;;;;;23.13;14.20;;;8.90;86.20;;;;;;5074593;28;20308;-64
2021/10/10 07:51:14;;;;;;;24.13;15.43;;;8.90;86.30;;;;;;5074613;28;20259;-64
2021/10/10 07:53:41;;;;;;;16.55;11.82;;;8.90;86.40;;;;;;5074518;28;20228;-63
2021/10/10 07:56:10;;;;;;;19.92;14.85;;;9.00;86.30;;;;;;5074217;28;21352;-64
2021/10/10 07:58:37;;;;;;;20.92;12.73;;;9.00;85.70;;;;;;5074468;28;20588;-63
2021/10/10 08:01:04;;;;;;;20.20;13.23;;;9.10;84.90;;;;;;5073847;28;20244;-63
2021/10/10 08:03:31;;;;;;;17.30;12.48;;;9.10;84.30;;;;;;5073976;28;20193;-64
2021/10/10 08:05:58;;;;;;;20.55;12.23;;;9.10;84.40;;;;;;5074296;28;20574;-64
2021/10/10 08:08:25;;;;;;;19.38;14.27;;;9.10;84.60;;;;;;5073957;28;20324;-64
2021/10/10 08:10:52;;;;;;;23.35;13.77;;;9.20;84.40;;;;;;5073924;28;20273;-64
2021/10/10 08:13:20;;;;;;;16.13;12.52;;;9.20;84.40;;;;;;5073882;28;20236;-64
2021/10/10 08:15:49;;;;;;;23.13;12.85;;;9.20;83.90;;;;;;5073804;28;20204;-65
2021/10/10 08:18:16;;;;;;;18.85;12.40;;;9.20;83.10;;;;;;5074206;28;20636;-63
2021/10/10 08:20:43;;;;;;;21.65;11.75;;;9.20;83.60;;;;;;5074019;28;20288;-63
2021/10/10 08:23:14;;;;;;;18.27;12.45;;;9.20;83.90;;;;;;5074130;28;20200;-63
2021/10/10 08:25:41;;;;;;;18.23;11.25;;;9.20;83.60;;;;;;5074043;28;20280;-64
2021/10/10 08:28:09;;;;;;;21.42;12.93;;;9.30;83.00;;;;;;5074005;28;20221;-64
2021/10/10 08:30:37;;;;;;;16.30;12.23;;;9.30;83.40;;;;;;5073596;28;20239;-64
2021/10/10 08:33:05;;;;;;;21.15;12.90;;;9.40;83.90;;;;;;5073732;28;20206;-64
2021/10/10 08:35:32;;;;;;;17.42;11.60;;;9.40;83.50;;;;;;5073735;28;20280;-63
2021/10/10 08:37:59;;;;;;;16.42;10.73;;;9.50;82.40;;;;;;5073256;28;20281;-64
2021/10/10 08:40:30;;;;;;;15.23;10.60;;;9.50;81.80;;;;;;5073488;28;20611;-64
2021/10/10 08:43:00;;;;;;;15.52;10.90;;;9.50;80.10;;;;;;5073648;28;20272;-64
2021/10/10 08:45:30;;;;;;;17.15;10.85;;;9.50;80.90;;;;;;5072984;28;20190;-64
2021/10/10 08:47:58;;;;;;;15.13;10.52;;;9.50;80.20;;;;;;5073593;28;20222;-64
2021/10/10 08:50:27;;;;;;;13.95;9.80;;;9.50;81.00;;;;;;5073578;28;20280;-64
2021/10/10 08:52:58;;;;;;;14.38;9.82;;;9.50;79.60;;;;;;5073116;28;20237;-63
2021/10/10 08:55:26;;;;;;;15.70;12.20;;;9.50;80.00;;;;;;5073555;28;20529;-64
2021/10/10 08:57:54;;;;;;;14.98;10.68;;;9.50;79.40;;;;;;5072763;28;20232;-64
2021/10/10 09:00:26;;;;;;;12.75;10.75;;;9.40;79.40;;;;;;5073039;28;20239;-63
2021/10/10 09:02:53;;;;;;;17.60;11.55;;;9.40;79.40;;;;;;5073092;28;20194;-64
2021/10/10 09:05:21;;;;;;;17.17;11.75;;;9.30;79.80;;;;;;5073443;28;20197;-64
2021/10/10 09:07:49;;;;;;;13.68;10.95;;;9.30;79.70;;;;;;5072313;28;20235;-64
2021/10/10 09:10:18;;;;;;;21.95;15.00;;;9.40;80.30;;;;;;5073507;28;20195;-64
2021/10/10 09:12:45;;;;;;;19.50;12.88;;;9.50;80.50;;;;;;5073130;28;20284;-64
2021/10/10 09:15:15;;;;;;;16.45;12.88;;;9.50;80.90;;;;;;5073501;28;20318;-64
2021/10/10 09:17:52;;;;;;;19.73;12.98;;;9.60;80.40;;;;;;5073126;28;20300;-63
2021/10/10 09:20:26;;;;;;;17.55;12.93;;;9.60;80.80;;;;;;5072905;28;20280;-63
2021/10/10 09:22:53;;;;;;;16.50;11.60;;;9.60;79.60;;;;;;5072987;28;20189;-63
2021/10/10 09:25:20;;;;;;;16.75;13.88;;;9.60;79.20;;;;;;5072883;28;20281;-64
2021/10/10 09:27:47;;;;;;;17.25;13.18;;;9.70;79.10;;;;;;5072694;28;20280;-64
2021/10/10 09:30:17;;;;;;;18.52;13.45;;;9.70;78.90;;;;;;5073077;28;20225;-64
2021/10/10 09:32:45;;;;;;;21.58;13.60;;;9.70;78.70;;;;;;5072896;28;20189;-64
2021/10/10 09:35:27;;;;;;;18.55;14.18;;;9.80;78.20;;;;;;5072885;28;20229;-63
2021/10/10 09:38:13;;;;;;;19.25;13.45;;;9.80;78.60;;;;;;5072828;28;20258;-64
2021/10/10 09:40:54;;;;;;;17.73;12.52;;;9.80;78.90;;;;;;5073085;28;20197;-63
2021/10/10 09:43:21;;;;;;;20.90;14.15;;;9.70;79.50;;;;;;5073044;28;20198;-64
2021/10/10 09:45:58;;;;;;;18.77;14.38;;;9.70;79.70;;;;;;5072909;28;20190;-63
2021/10/10 09:48:38;;;;;;;19.33;14.43;;;;;;;;;;5072921;28;20303;-63
2021/10/10 09:51:07;;;;;;;18.45;13.95;;;;;;;;;;5073052;28;20193;-63
2021/10/10 09:53:35;;;;;;;19.27;15.93;;;;;;;;;;5072665;28;20659;-63
2021/10/10 09:56:07;;;;;;;20.95;14.05;;;;;;;;;;5072776;28;20644;-63
2021/10/10 09:58:36;;;;;;;19.77;13.43;;;9.70;79.70;;;;;;5072419;28;20198;-63
2021/10/10 10:01:13;;;;;;;24.65;15.35;;;10.00;77.60;;;;;;5072804;28;20189;-64
2021/10/10 10:04:02;;;;;;;18.60;14.75;;;10.00;77.80;;;;;;5072762;28;20561;-64
2021/10/10 10:06:35;;;;;;;19.98;15.38;;;10.00;79.00;;;;;;5072836;28;20705;-63
2021/10/10 10:09:04;;;;;;;22.25;15.40;;;10.00;77.60;;;;;;5072541;28;20265;-63
2021/10/10 10:11:33;;;;;;;18.00;13.90;;;10.00;77.10;;;;;;5072289;28;20701;-63
2021/10/10 10:14:02;;;;;;;22.60;14.82;;;10.00;77.10;;;;;;5072863;28;20221;-63
2021/10/10 10:16:30;;;;;;;17.65;13.40;;;10.00;76.80;;;;;;5072452;28;20193;-64
2021/10/10 10:18:59;;;;;;;19.35;14.40;;;10.10;77.40;;;;;;5073494;28;20604;-63
2021/10/10 10:21:27;;;;;;;26.55;20.27;;;10.10;77.50;;;;;;5076552;28;20667;-64
2021/10/10 10:24:00;;;;;;;25.08;18.08;;;10.20;77.60;;;;;;5076389;28;20276;-64
2021/10/10 10:26:33;;;;;;;21.17;14.90;;;10.20;77.50;;;;;;5076332;28;20540;-63
2021/10/10 10:29:02;;;;;;;19.25;15.68;;;10.30;77.30;;;;;;5076142;28;20736;-63
2021/10/10 10:31:30;;;;;;;24.42;17.20;;;10.30;76.70;;;;;;5076213;28;20239;-63
2021/10/10 10:34:18;;;;;;;19.90;15.73;;;10.40;76.30;;;;;;5076065;28;20202;-63
2021/10/10 10:36:58;;;;;;;25.00;17.00;;;10.40;75.60;;;;;;5076081;28;20284;-64
2021/10/10 10:39:43;;;;;;;21.60;15.93;;;10.50;74.60;;;;;;5075997;28;20186;-63
2021/10/10 10:42:11;;;;;;;22.05;17.02;;;10.50;75.50;;;;;;5075997;28;20267;-64
2021/10/10 10:44:40;;;;;;;21.88;16.33;;;10.40;75.60;;;;;;5075987;28;20221;-64
2021/10/10 10:47:10;;;;;;;23.80;17.83;;;10.50;75.80;;;;;;5075636;28;20219;-63
2021/10/10 10:50:04;;;;;;;23.08;17.20;;;10.50;75.30;;;;;;5075750;28;20300;-63
2021/10/10 10:52:33;;;;;;;24.58;17.45;;;10.60;76.40;;;;;;5062064;28;20280;-64
2021/10/10 10:55:19;;;;;;;26.98;16.98;;;10.60;75.40;;;;;;5075755;28;20186;-63
2021/10/10 10:57:54;;;;;;;27.75;16.98;;;10.60;75.30;;;;;;5075921;28;20275;-64
2021/10/10 11:00:26;;;;;;;23.67;16.88;;;10.60;75.30;;;;;;5075461;28;20625;-64
2021/10/10 11:03:00;;;;;;;23.38;16.35;;;10.70;75.20;;;;;;5075631;28;20259;-64
2021/10/10 11:05:35;;;;;;;22.48;17.45;;;10.70;75.10;;;;;;5075740;28;20601;-63
2021/10/10 11:08:04;;;;;;;27.73;16.85;;;10.70;75.00;;;;;;5075344;28;20298;-63
2021/10/10 11:10:34;;;;;;;30.20;20.48;;;;;;;;;;5075537;28;20284;-63
2021/10/10 11:13:28;;;;;;;22.35;17.10;;;;;;;;;;5074998;28;20276;-63
2021/10/10 11:15:57;;;;;;;32.05;19.23;;;;;;;;;;5039468;28;20632;-63
2021/10/10 11:18:25;;;;;;;23.70;17.20;;;;;;;;;;5074911;28;20193;-64
2021/10/10 11:20:54;;;;;;;23.13;16.52;;;;;;;;;;5075291;28;20292;-64
2021/10/10 11:23:24;;;;;;;28.23;17.35;;;;;;;;;;5075407;28;20197;-63
2021/10/10 11:26:04;;;;;;;24.42;18.10;;;;;;;;;;5075064;28;20540;-64
2021/10/10 11:28:38;;;;;;;30.27;17.20;;;;;;;;;;5075082;28;20296;-63
2021/10/10 11:31:09;;;;;;;33.70;23.83;;;;;;;;;;5074109;28;20189;-63
2021/10/10 11:33:37;;;;;;;35.78;28.40;;;;;;;;;;5074715;28;20280;-63
2021/10/10 11:36:04;;;;;;;28.60;20.77;;;;;;;;;;5075057;28;20375;-64
2021/10/10 11:38:46;;;;;;;26.48;19.58;;;;;;;;;;5074751;28;20569;-64
2021/10/10 11:41:15;;;;;;;23.48;16.52;;;;;;;;;;5074804;28;20280;-63
2021/10/10 11:43:53;;;;;;;24.20;18.73;;;;;;;;;;5075087;28;20229;-63
2021/10/10 11:46:21;;;;;;;24.67;18.77;;;;;;;;;;5074311;28;20696;-63
2021/10/10 11:48:49;;;;;;;26.15;17.75;;;;;;;;;;5074478;28;20304;-64
2021/10/10 11:51:26;;;;;;;24.35;18.00;;;;;;;;;;5074476;28;20193;-64
2021/10/10 11:53:54;;;;;;;28.38;17.83;;;;;;;;;;5074031;28;20217;-63
2021/10/10 11:56:22;;;;;;;25.63;18.67;;;;;;;;;;5074552;28;20189;-64
2021/10/10 11:58:55;;;;;;;22.73;18.42;;;;;;;;;;5074358;28;20221;-64
2021/10/10 12:01:22;;;;;;;33.30;19.20;;;;;;;;;;5074566;28;20217;-63
2021/10/10 12:03:49;;;;;;;26.08;18.20;;;;;;;;;;5074472;28;20232;-63
2021/10/10 12:06:20;;;;;;;24.83;18.55;;;;;;;;;;5074392;28;20280;-64
2021/10/10 12:08:48;;;;;;;24.65;18.30;;;;;;;;;;5074029;28;20316;-64
2021/10/10 12:11:15;;;;;;;22.38;17.85;;;;;;;;;;5073989;28;20229;-64
2021/10/10 12:13:57;;;;;;;25.77;17.92;;;;;;;;;;5074195;28;20233;-64
2021/10/10 12:16:24;;;;;;;27.80;17.85;;;;;;;;;;5073561;28;20225;-64
2021/10/10 12:18:58;;;;;;;24.90;18.08;;;;;;;;;;5074151;28;20236;-63
2021/10/10 12:21:26;;;;;;;24.77;17.85;;;;;;;;;;5074246;28;20667;-63
2021/10/10 12:24:10;;;;;;;22.92;19.48;;;;;;;;;;5074016;28;20640;-64
2021/10/10 12:26:44;;;;;;;31.63;18.38;;;;;;;;;;5074187;28;20243;-64
2021/10/10 12:29:20;;;;;;;25.08;18.10;;;;;;;;;;5073674;28;20676;-63
2021/10/10 12:31:47;;;;;;;24.25;17.90;;;;;;;;;;5074141;28;20243;-63
2021/10/10 12:34:15;;;;;;;26.23;18.77;;;;;;;;;;5074015;28;20239;-64
2021/10/10 12:36:45;;;;;;;26.05;17.85;;;;;;;;;;5073695;28;20236;-64
2021/10/10 12:39:13;;;;;;;27.33;19.88;;;;;;;;;;5073889;28;20244;-63
2021/10/10 12:41:40;;;;;;;25.45;18.70;;;;;;;;;;5073651;28;20276;-64
2021/10/10 12:44:17;;;;;;;26.75;18.65;;;;;;;;;;5073732;28;20193;-63
2021/10/10 12:46:50;;;;;;;24.48;17.50;;;;;;;;;;5073383;28;20190;-64
2021/10/10 12:49:27;;;;;;;29.20;18.20;;;;;;;;;;5073435;28;20302;-64
2021/10/10 12:51:54;;;;;;;24.02;16.05;;;;;;;;;;5073389;28;20185;-64
2021/10/10 12:54:23;;;;;;;23.98;18.05;;;;;;;;;;5073457;28;20272;-64
2021/10/10 12:57:06;;;;;;;28.70;17.98;;;;;;;;;;5073471;28;20243;-64
2021/10/10 12:59:33;;;;;;;26.10;20.20;;;;;;;;;;5073634;28;20233;-64
2021/10/10 13:02:02;;;;;;;25.67;18.35;;;;;;;;;;5073307;28;20240;-64
2021/10/10 13:04:29;;;;;;;26.92;19.00;;;;;;;;;;5073295;28;20674;-64
2021/10/10 13:06:57;;;;;;;24.67;17.63;;;;;;;;;;5073014;28;20225;-64
2021/10/10 13:09:28;;;;;;;24.70;18.50;;;;;;;;;;5073205;28;20268;-64
2021/10/10 13:11:57;;;;;;;33.20;21.55;;;;;;;;;;5073323;28;20189;-64
2021/10/10 13:14:26;;;;;;;36.72;24.17;;;;;;;;;;5072960;28;20595;-64
2021/10/10 13:16:53;;;;;;;21.83;16.70;;;;;;;;;;5073081;28;20258;-64
2021/10/10 13:19:22;;;;;;;25.53;18.40;;;;;;;;;;5073036;28;20185;-65
2021/10/10 13:21:49;;;;;;;23.83;18.43;;;;;;;;;;5072637;28;20518;-64
2021/10/10 13:24:18;;;;;;;22.80;18.43;;;;;;;;;;5073173;28;20439;-64
2021/10/10 13:26:45;;;;;;;20.50;16.50;;;;;;;;;;5072945;28;20468;-64